< < Back
Terminal Aerodrome Forecast


Current Version              Previous Versions:   1  2  3  4  5  6  7  8  9  

Terminal Aerodrome Forecast

070
FTUS42 KJAX 282300
TAFSSI
TAF
KSSI 282320Z 2900/2924 24011G17KT P6SM VCTS SCT050CB BKN250
      TEMPO 2901/2905 VRB20G30KT 3SM TSRA BKN035CB
     FM290500 25010KT P6SM VCSH SCT030 BKN250
     FM291000 28008KT P6SM FEW030 SCT250
     FM291400 30009KT P6SM SCT035 SCT250
     FM292200 18010KT P6SM FEW250=



Latest METAR

382
SAUS70 KWBC 290800 RRM
MTRSSI
METAR KSSI 290753Z AUTO 28008KT 10SM CLR 27/23 A2987 RMK AO2 SLP114
T02670228


USA.gov is the U.S. government's official web portal to all federal, state and local government web resources and services.